createdAt,value
2022-08-12T00:02:25.825Z,99.90
2022-08-12T00:06:01.686Z,99.90
2022-08-12T00:09:26.792Z,99.90
2022-08-12T00:12:47.385Z,99.90
2022-08-12T00:16:09.198Z,99.90
2022-08-12T00:19:29.869Z,99.90
2022-08-12T00:22:58.969Z,99.90
2022-08-12T00:26:24.577Z,99.90
2022-08-12T00:29:48.111Z,99.90
2022-08-12T00:33:10.846Z,99.90
2022-08-12T00:36:36.176Z,99.90
2022-08-12T00:39:59.447Z,99.90
2022-08-12T00:43:02.950Z,99.90
2022-08-12T00:46:26.410Z,99.90
2022-08-12T00:49:30.980Z,99.90
2022-08-12T00:52:35.246Z,99.90
2022-08-12T00:55:43.926Z,99.90
2022-08-12T00:58:50.969Z,99.90
2022-08-12T01:02:01.086Z,99.90
2022-08-12T01:05:35.823Z,99.90
2022-08-12T01:09:14.729Z,99.90
2022-08-12T01:12:18.840Z,99.90
2022-08-12T01:15:21.473Z,99.90
2022-08-12T01:18:29.050Z,99.90
2022-08-12T01:21:56.961Z,99.90
2022-08-12T01:25:11.906Z,99.90
2022-08-12T01:28:16.822Z,99.90
2022-08-12T01:31:22.021Z,99.90
2022-08-12T01:34:36.422Z,99.90
2022-08-12T01:37:57.747Z,99.90
2022-08-12T01:41:02.415Z,99.90
2022-08-12T01:44:06.652Z,99.90
2022-08-12T01:47:45.712Z,99.90
2022-08-12T01:51:00.542Z,99.90
2022-08-12T01:54:12.666Z,99.90
2022-08-12T01:57:58.947Z,99.90
2022-08-12T02:00:59.716Z,99.90
2022-08-12T02:04:40.290Z,99.90
2022-08-12T02:08:12.646Z,99.90
2022-08-12T02:11:23.386Z,99.90
2022-08-12T02:14:42.221Z,99.90
2022-08-12T02:18:14.735Z,99.90
2022-08-12T02:21:24.075Z,99.90
2022-08-12T02:24:31.388Z,99.90
2022-08-12T02:27:43.014Z,99.90
2022-08-12T02:30:45.370Z,99.90
2022-08-12T02:33:47.993Z,99.90
2022-08-12T02:36:56.088Z,99.90
2022-08-12T02:40:03.557Z,99.90
2022-08-12T02:43:22.925Z,99.90
2022-08-12T02:46:34.763Z,99.90
2022-08-12T02:49:44.818Z,99.90
2022-08-12T02:52:47.939Z,99.90
2022-08-12T02:55:50.053Z,99.90
2022-08-12T02:58:53.257Z,99.90
2022-08-12T03:01:59.541Z,99.90
2022-08-12T03:05:04.672Z,99.90
2022-08-12T03:08:12.249Z,99.90
2022-08-12T03:11:42.845Z,99.90
2022-08-12T03:14:52.764Z,99.90
2022-08-12T03:18:26.887Z,99.90
2022-08-12T03:21:56.508Z,99.90
2022-08-12T03:25:03.896Z,99.90
2022-08-12T03:28:09.472Z,99.90
2022-08-12T03:31:32.536Z,99.90
2022-08-12T03:34:36.301Z,99.90
2022-08-12T03:37:41.711Z,99.90
2022-08-12T03:41:23.676Z,99.90
2022-08-12T03:45:09.351Z,99.90
2022-08-12T03:48:31.308Z,99.90
2022-08-12T03:51:52.111Z,99.90
2022-08-12T03:55:14.648Z,99.90
2022-08-12T03:58:36.492Z,99.90
2022-08-12T04:01:41.246Z,99.90
2022-08-12T04:04:45.781Z,99.90
2022-08-12T04:07:57.932Z,99.90
2022-08-12T04:11:31.692Z,99.90
2022-08-12T04:14:35.129Z,99.90
2022-08-12T04:17:37.955Z,99.90
2022-08-12T04:21:02.819Z,99.90
2022-08-12T04:24:06.010Z,99.90
2022-08-12T04:27:10.711Z,99.90
2022-08-12T04:30:16.726Z,99.90
2022-08-12T04:33:34.772Z,99.90
2022-08-12T04:36:41.387Z,99.90
2022-08-12T04:39:45.610Z,99.90
2022-08-12T04:42:47.893Z,99.90
2022-08-12T04:45:50.190Z,99.90
2022-08-12T04:48:54.100Z,99.90
2022-08-12T04:51:59.537Z,99.90
2022-08-12T04:55:03.656Z,99.90
2022-08-12T04:58:07.069Z,99.90
2022-08-12T05:01:10.673Z,99.90
2022-08-12T05:04:13.182Z,99.90
2022-08-12T05:07:15.363Z,99.90
2022-08-12T05:10:18.970Z,99.90
2022-08-12T05:13:26.268Z,99.90
2022-08-12T05:16:31.176Z,99.90
2022-08-12T05:19:36.277Z,99.90
2022-08-12T05:22:39.828Z,99.90
2022-08-12T05:25:44.033Z,99.90
2022-08-12T05:28:46.461Z,99.90
2022-08-12T05:31:49.743Z,99.90
2022-08-12T05:34:53.824Z,99.90
2022-08-12T05:38:14.277Z,99.90
2022-08-12T05:41:20.592Z,99.90
2022-08-12T05:44:23.196Z,99.90
2022-08-12T05:47:36.728Z,99.90
2022-08-12T05:50:48.469Z,99.90
2022-08-12T05:53:52.650Z,99.90
2022-08-12T05:56:54.815Z,99.90
2022-08-12T05:59:57.165Z,99.90
2022-08-12T06:03:03.393Z,99.90
2022-08-12T06:06:07.297Z,99.90
2022-08-12T06:09:12.334Z,99.90
2022-08-12T06:12:21.529Z,99.90
2022-08-12T06:15:23.716Z,99.90
2022-08-12T06:18:29.795Z,99.90
2022-08-12T06:21:33.428Z,99.90
2022-08-12T06:24:35.728Z,99.90
2022-08-12T06:28:06.844Z,99.90
2022-08-12T06:31:26.904Z,99.90
2022-08-12T06:35:25.221Z,99.90
2022-08-12T06:37:57.672Z,99.60
2022-08-12T06:41:30.160Z,98.80
2022-08-12T06:44:32.878Z,98.00
2022-08-12T06:47:38.439Z,96.90
2022-08-12T06:50:42.598Z,95.90
2022-08-12T06:53:44.956Z,95.60
2022-08-12T06:57:03.514Z,94.30
2022-08-12T07:00:08.730Z,93.60
2022-08-12T07:03:23.081Z,93.40
2022-08-12T07:06:26.009Z,92.00
2022-08-12T07:10:03.854Z,91.40
2022-08-12T07:12:57.649Z,90.10
2022-08-12T07:16:01.414Z,89.70
2022-08-12T07:19:05.000Z,87.80
2022-08-12T07:22:10.041Z,86.10
2022-08-12T07:25:31.008Z,84.50
2022-08-12T07:28:44.213Z,82.40
2022-08-12T07:31:46.729Z,82.00
2022-08-12T07:34:49.949Z,81.70
2022-08-12T07:37:53.407Z,83.60
2022-08-12T07:41:06.357Z,80.60
2022-08-12T07:44:10.241Z,79.30
2022-08-12T07:47:12.784Z,78.70
2022-08-12T07:50:23.399Z,75.60
2022-08-12T07:53:25.973Z,74.20
2022-08-12T07:56:28.974Z,70.90
2022-08-12T07:59:34.225Z,72.20
2022-08-12T08:02:37.696Z,69.80
2022-08-12T08:05:46.636Z,69.00
2022-08-12T08:08:48.846Z,69.40
2022-08-12T08:12:18.956Z,66.50
2022-08-12T08:16:01.311Z,65.50
2022-08-12T08:18:59.524Z,65.70
2022-08-12T08:22:01.599Z,65.30
2022-08-12T08:25:04.506Z,64.70
2022-08-12T08:28:26.669Z,63.60
2022-08-12T08:31:29.000Z,61.20
2022-08-12T08:34:53.920Z,62.90
2022-08-12T08:37:53.778Z,62.30
2022-08-12T08:41:14.683Z,61.10
2022-08-12T08:44:38.448Z,59.70
2022-08-12T08:47:44.888Z,57.60
2022-08-12T08:50:47.273Z,55.20
2022-08-12T08:54:12.353Z,57.20
2022-08-12T08:57:14.752Z,56.90
2022-08-12T09:00:19.795Z,57.10
2022-08-12T09:05:07.637Z,55.50
2022-08-12T09:06:53.870Z,53.70
2022-08-12T09:10:02.999Z,50.80
2022-08-12T09:13:29.201Z,48.50
2022-08-12T09:20:15.986Z,51.30
2022-08-12T09:23:59.127Z,50.20
2022-08-12T09:26:46.488Z,50.10
2022-08-12T09:30:09.633Z,50.70
2022-08-12T09:33:14.991Z,48.60
2022-08-12T09:36:31.306Z,49.90
2022-08-12T09:40:05.338Z,49.00
2022-08-12T09:43:26.307Z,50.50
2022-08-12T09:46:34.466Z,49.10
2022-08-12T09:49:42.043Z,47.40
2022-08-12T09:52:46.352Z,47.00
2022-08-12T09:56:05.696Z,43.90
2022-08-12T09:59:15.943Z,44.50
2022-08-12T10:02:43.083Z,45.60
2022-08-12T10:06:19.940Z,44.90
2022-08-12T10:09:14.075Z,44.30
2022-08-12T10:12:36.436Z,43.70
2022-08-12T10:16:02.601Z,43.40
2022-08-12T10:19:04.452Z,42.90
2022-08-12T10:22:17.227Z,40.00
2022-08-12T10:26:18.166Z,43.20
2022-08-12T10:30:03.267Z,44.30
2022-08-12T10:32:59.907Z,42.30
2022-08-12T10:36:05.280Z,43.10
2022-08-12T10:40:00.034Z,45.80
2022-08-12T10:43:00.941Z,44.20
2022-08-12T10:46:03.097Z,40.30
2022-08-12T10:50:04.662Z,42.00
2022-08-12T10:52:41.564Z,42.20
2022-08-12T10:55:43.824Z,42.40
2022-08-12T10:58:47.979Z,44.10
2022-08-12T11:04:19.710Z,46.40
2022-08-12T11:07:05.149Z,46.30
2022-08-12T11:08:42.934Z,49.10
2022-08-12T11:12:34.605Z,49.50
2022-08-12T11:15:18.754Z,50.00
2022-08-12T11:18:24.819Z,50.00
2022-08-12T11:21:57.794Z,48.60
2022-08-12T11:24:51.389Z,47.60
2022-08-12T11:28:00.611Z,47.50
2022-08-12T11:31:11.861Z,48.40
2022-08-12T11:34:52.947Z,51.10
2022-08-12T11:37:59.142Z,54.10
2022-08-12T11:41:05.266Z,54.80
2022-08-12T11:44:36.749Z,57.60
2022-08-12T11:47:29.963Z,58.00
2022-08-12T11:50:34.453Z,59.20
2022-08-12T11:53:57.724Z,61.30
2022-08-12T11:58:07.354Z,63.10
2022-08-12T12:03:48.901Z,65.70
2022-08-12T12:06:53.195Z,67.20
2022-08-12T12:09:55.713Z,68.70
2022-08-12T12:12:58.428Z,67.80
2022-08-12T12:16:05.839Z,68.00
2022-08-12T12:19:10.219Z,68.80
2022-08-12T12:22:15.733Z,70.50
2022-08-12T12:26:06.869Z,71.40
2022-08-12T12:28:54.277Z,73.20
2022-08-12T12:32:09.079Z,74.70
2022-08-12T12:36:06.114Z,73.90
2022-08-12T12:38:36.257Z,73.80
2022-08-12T12:42:41.685Z,74.80
2022-08-12T12:45:00.907Z,75.50
2022-08-12T12:48:04.963Z,76.20
2022-08-12T12:51:48.235Z,76.40
2022-08-12T12:54:38.247Z,76.30
2022-08-12T12:58:00.215Z,75.80
2022-08-12T13:01:04.981Z,75.20
2022-08-12T13:04:27.320Z,75.10
2022-08-12T13:07:54.833Z,74.40
2022-08-12T13:10:56.231Z,73.70
2022-08-12T13:14:07.187Z,75.00
2022-08-12T13:17:19.807Z,74.80
2022-08-12T13:20:38.031Z,74.00
2022-08-12T13:23:47.933Z,73.90
2022-08-12T13:26:50.734Z,73.80
2022-08-12T13:29:56.254Z,73.10
2022-08-12T13:33:00.624Z,72.50
2022-08-12T13:36:07.694Z,72.10
2022-08-12T13:39:12.469Z,71.60
2022-08-12T13:42:19.404Z,71.00
2022-08-12T13:45:22.729Z,70.90
2022-08-12T13:48:28.959Z,70.90
2022-08-12T13:51:41.447Z,70.80
2022-08-12T13:54:56.344Z,71.00
2022-08-12T13:58:01.669Z,70.60
2022-08-12T14:01:06.199Z,70.40
2022-08-12T14:04:11.399Z,70.20
2022-08-12T14:07:14.430Z,70.20
2022-08-12T14:10:37.468Z,69.80
2022-08-12T14:14:03.691Z,69.70
2022-08-12T14:17:10.493Z,69.70
2022-08-12T14:20:16.197Z,69.80
2022-08-12T14:24:07.947Z,69.80
2022-08-12T14:26:43.667Z,69.60
2022-08-12T14:30:05.083Z,69.70
2022-08-12T14:33:11.236Z,69.80
2022-08-12T14:36:14.985Z,69.80
2022-08-12T14:39:18.057Z,69.60
2022-08-12T14:42:20.771Z,69.10
2022-08-12T14:45:44.430Z,69.20
2022-08-12T14:48:51.111Z,69.00
2022-08-12T14:52:44.211Z,68.80
2022-08-12T14:58:59.984Z,68.20
2022-08-12T15:02:03.636Z,68.50
2022-08-12T15:05:08.261Z,68.30
2022-08-12T15:08:14.281Z,68.60
2022-08-12T15:11:48.889Z,68.40
2022-08-12T15:14:50.107Z,69.10
2022-08-12T15:18:02.014Z,69.70
2022-08-12T15:21:11.117Z,69.50
2022-08-12T15:24:13.780Z,69.20
2022-08-12T15:27:22.119Z,69.40
2022-08-12T15:30:25.237Z,69.30
2022-08-12T15:33:45.130Z,69.20
2022-08-12T15:36:54.930Z,69.60
2022-08-12T15:40:01.163Z,69.60
2022-08-12T15:43:08.242Z,69.70
2022-08-12T15:46:15.511Z,70.10
2022-08-12T15:49:19.028Z,69.80
2022-08-12T15:52:27.471Z,70.10
2022-08-12T15:55:33.484Z,70.60
2022-08-12T15:58:38.477Z,70.40
2022-08-12T16:01:41.626Z,71.30
2022-08-12T16:04:43.780Z,71.30
2022-08-12T16:07:51.403Z,71.70
2022-08-12T16:10:53.961Z,71.90
2022-08-12T16:13:56.148Z,72.10
2022-08-12T16:17:00.135Z,72.00
2022-08-12T16:20:05.545Z,72.20
2022-08-12T16:23:21.399Z,72.10
2022-08-12T16:26:36.773Z,72.40
2022-08-12T16:29:53.334Z,73.10
2022-08-12T16:32:58.907Z,73.10
2022-08-12T16:36:18.789Z,73.20
2022-08-12T16:39:22.328Z,73.30
2022-08-12T16:42:28.468Z,74.70
2022-08-12T16:46:23.332Z,74.10
2022-08-12T16:48:55.961Z,74.30
2022-08-12T16:52:00.721Z,74.40
2022-08-12T16:55:03.953Z,74.00
2022-08-12T16:58:28.012Z,74.00
2022-08-12T17:01:35.073Z,73.90
2022-08-12T17:04:40.616Z,73.90
2022-08-12T17:07:47.199Z,73.80
2022-08-12T17:10:54.519Z,74.40
2022-08-12T17:13:56.913Z,74.30
2022-08-12T17:16:59.064Z,74.10
2022-08-12T17:20:34.505Z,73.90
2022-08-12T17:23:48.017Z,73.30
2022-08-12T17:26:54.200Z,73.30
2022-08-12T17:30:00.624Z,73.80
2022-08-12T17:33:11.516Z,73.90
2022-08-12T17:36:14.764Z,74.00
2022-08-12T17:39:17.186Z,74.40
2022-08-12T17:42:34.830Z,74.60
2022-08-12T17:45:42.470Z,75.20
2022-08-12T17:48:54.986Z,75.00
2022-08-12T17:52:02.003Z,75.20
2022-08-12T17:55:16.601Z,75.30
2022-08-12T17:58:37.156Z,75.30
2022-08-12T18:01:45.647Z,75.60
2022-08-12T18:05:04.975Z,75.70
2022-08-12T18:08:12.127Z,76.40
2022-08-12T18:12:05.609Z,76.50
2022-08-12T18:15:01.343Z,76.80
2022-08-12T18:18:04.334Z,77.10
2022-08-12T18:21:10.778Z,77.30
2022-08-12T18:24:21.496Z,77.50
2022-08-12T18:27:42.121Z,77.60
2022-08-12T18:30:53.515Z,78.00
2022-08-12T18:34:00.897Z,78.10
2022-08-12T18:37:11.759Z,78.60
2022-08-12T18:40:47.842Z,78.60
2022-08-12T18:44:02.608Z,78.80
2022-08-12T18:47:10.523Z,79.20
2022-08-12T18:50:15.852Z,79.70
2022-08-12T18:53:31.013Z,80.00
2022-08-12T18:56:43.177Z,81.00
2022-08-12T19:00:01.552Z,81.30
2022-08-12T19:03:09.187Z,81.70
2022-08-12T19:06:27.482Z,82.20
2022-08-12T19:09:57.480Z,83.00
2022-08-12T19:13:23.671Z,83.50
2022-08-12T19:16:28.432Z,84.80
2022-08-12T19:19:37.219Z,85.20
2022-08-12T19:23:02.219Z,85.50
2022-08-12T19:26:12.702Z,85.70
2022-08-12T19:29:18.375Z,86.10
2022-08-12T19:32:24.099Z,86.60
2022-08-12T19:36:07.859Z,87.40
2022-08-12T19:38:57.122Z,87.20
2022-08-12T19:42:01.127Z,87.30
2022-08-12T19:45:06.945Z,87.30
2022-08-12T19:48:17.928Z,87.80
2022-08-12T19:51:35.880Z,87.80
2022-08-12T19:54:38.804Z,88.00
2022-08-12T19:58:01.383Z,88.70
2022-08-12T20:01:10.913Z,88.80
2022-08-12T20:04:14.427Z,88.60
2022-08-12T20:07:23.488Z,88.60
2022-08-12T20:10:35.513Z,88.80
2022-08-12T20:13:42.124Z,88.90
2022-08-12T20:16:52.325Z,88.70
2022-08-12T20:20:16.636Z,89.30
2022-08-12T20:23:50.833Z,89.30
2022-08-12T20:26:52.072Z,89.90
2022-08-12T20:30:05.592Z,89.70
2022-08-12T20:33:17.629Z,90.00
2022-08-12T20:36:42.469Z,90.00
2022-08-12T20:39:53.526Z,90.20
2022-08-12T20:42:59.863Z,90.00
2022-08-12T20:46:02.365Z,90.40
2022-08-12T20:49:14.803Z,90.60
2022-08-12T20:52:19.822Z,90.70
2022-08-12T20:55:22.005Z,90.70
2022-08-12T20:58:44.829Z,91.10
2022-08-12T21:01:49.244Z,91.10
2022-08-12T21:05:19.564Z,91.30
2022-08-12T21:08:24.987Z,91.80
2022-08-12T21:11:27.113Z,91.80
2022-08-12T21:14:39.679Z,91.90
2022-08-12T21:18:09.735Z,92.40
2022-08-12T21:21:23.636Z,92.40
2022-08-12T21:24:31.693Z,92.50
2022-08-12T21:27:58.569Z,93.00
2022-08-12T21:32:34.324Z,93.20
2022-08-12T21:34:26.028Z,93.90
2022-08-12T21:37:31.984Z,93.50
2022-08-12T21:40:52.057Z,94.00
2022-08-12T21:44:01.679Z,94.40
2022-08-12T21:47:18.268Z,94.80
2022-08-12T21:50:29.023Z,95.20
2022-08-12T21:54:06.912Z,95.30
2022-08-12T21:56:54.129Z,95.40
2022-08-12T21:59:56.656Z,95.30
2022-08-12T22:03:17.286Z,95.20
2022-08-12T22:06:43.847Z,95.70
2022-08-12T22:09:47.056Z,95.70
2022-08-12T22:13:01.091Z,95.80
2022-08-12T22:16:04.001Z,96.00
2022-08-12T22:19:06.697Z,95.90
2022-08-12T22:22:08.810Z,95.80
2022-08-12T22:25:16.899Z,96.00
2022-08-12T22:28:59.082Z,95.90
2022-08-12T22:32:02.460Z,96.00
2022-08-12T22:35:29.295Z,96.20
2022-08-12T22:38:32.225Z,96.30
2022-08-12T22:41:56.720Z,96.50
2022-08-12T22:45:18.448Z,96.50
2022-08-12T22:48:26.507Z,96.20
2022-08-12T22:52:00.005Z,96.30
2022-08-12T22:55:02.821Z,96.20
2022-08-12T22:58:08.430Z,96.70
2022-08-12T23:01:50.183Z,96.70
2022-08-12T23:04:37.187Z,97.00
2022-08-12T23:07:59.004Z,97.00
2022-08-12T23:11:04.640Z,96.90
2022-08-12T23:14:12.637Z,97.00
2022-08-12T23:17:21.450Z,97.10
2022-08-12T23:20:37.057Z,97.20
2022-08-12T23:24:09.586Z,97.20
2022-08-12T23:27:21.540Z,97.30
2022-08-12T23:30:32.036Z,97.40
2022-08-12T23:34:01.989Z,97.40
2022-08-12T23:37:00.347Z,97.40
2022-08-12T23:40:14.052Z,97.20
2022-08-12T23:43:18.373Z,97.50
2022-08-12T23:46:25.741Z,97.40
2022-08-12T23:49:58.576Z,97.70
2022-08-12T23:52:52.975Z,97.70
2022-08-12T23:55:57.261Z,97.60
2022-08-12T23:59:00.246Z,97.60
